Time;durP1;ratioP1;P1;durP2;ratioP2;P2;SDS_P1;SDS_P2;PMS_P1;PMS_P2;Temp;Humidity;BMP_temperature;BMP_pressure;BME280_temperature;BME280_humidity;BME280_pressure;Samples;Min_cycle;Max_cycle;Signal;HPM_P1;HPM_P2
2021/12/02 00:00:57;;;;;;;;;5.00;2.33;;;;;9.57;63.42;99907.84;5059067;28;45535;-71
2021/12/02 00:03:24;;;;;;;;;4.33;4.33;;;;;9.52;64.20;99901.38;5037355;28;45609;-71
2021/12/02 00:05:50;;;;;;;;;5.67;5.00;;;;;9.54;64.09;99900.22;5022291;28;47318;-71
2021/12/02 00:08:15;;;;;;;;;5.00;3.67;;;;;9.39;63.92;99881.38;5059576;28;45342;-72
2021/12/02 00:10:41;;;;;;;;;7.67;5.67;;;;;9.50;64.48;99892.72;5057133;28;45345;-71
2021/12/02 00:13:08;;;;;;;;;2.67;2.67;;;;;9.41;64.21;99881.22;5057159;28;45432;-72
2021/12/02 00:15:47;;;;;;;;;6.33;5.00;;;;;9.38;64.27;99879.72;5059294;28;46469;-71
2021/12/02 00:23:45;;;;;;;;;5.67;3.00;;;;;9.34;64.29;99882.84;5053589;28;45256;-70
2021/12/02 00:26:18;;;;;;;;;3.67;2.67;;;;;9.47;64.42;99914.28;5020902;28;46248;-70
2021/12/02 00:28:50;;;;;;;;;4.00;4.00;;;;;9.49;64.64;99912.31;5037261;28;45385;-70
2021/12/02 00:31:18;;;;;;;;;4.00;4.00;;;;;9.48;64.49;99914.13;5020997;28;45274;-70
2021/12/02 00:33:47;;;;;;;;;7.00;4.00;;;;;8.97;64.63;99856.59;5024505;28;45632;-71
2021/12/02 00:36:14;;;;;;;;;4.00;3.00;;;;;9.41;64.54;99926.34;5045126;28;46547;-79
2021/12/02 00:38:42;;;;;;;;;5.00;2.33;;;;;9.17;65.00;99887.22;5037201;28;45348;-71
2021/12/02 00:41:16;;;;;;;;;3.00;3.00;;;;;9.24;64.80;99906.84;5020853;28;45344;-71
2021/12/02 00:43:43;;;;;;;;;4.33;3.00;;;;;9.36;64.53;99926.81;5054182;28;45316;-70
2021/12/02 00:46:12;;;;;;;;;5.33;5.33;;;;;8.89;65.22;99872.47;5020592;28;48149;-71
2021/12/02 00:48:39;;;;;;;;;4.00;3.00;;;;;9.23;65.19;99923.75;5038339;28;45488;-70
2021/12/02 00:51:05;;;;;;;;;4.00;3.00;;;;;9.26;65.34;99915.47;5020751;28;45867;-71
2021/12/02 00:53:33;;;;;;;;;6.00;4.67;;;;;9.34;65.48;99933.25;5039155;28;45292;-70
2021/12/02 00:56:09;;;;;;;;;4.33;3.33;;;;;9.18;65.77;99899.50;5058689;28;45455;-70
2021/12/02 00:58:35;;;;;;;;;4.00;4.00;;;;;8.83;65.59;99842.13;5037210;28;45531;-70
2021/12/02 01:01:01;;;;;;;;;3.67;3.67;;;;;9.23;65.95;99929.06;5038262;28;45479;-70
2021/12/02 01:03:32;;;;;;;;;3.00;3.00;;;;;9.31;66.31;99934.41;5038746;28;45286;-72
2021/12/02 01:05:59;;;;;;;;;5.00;5.00;;;;;9.26;66.42;99933.22;5047447;28;46623;-70
2021/12/02 01:08:26;;;;;;;;;4.33;4.33;;;;;9.30;66.46;99956.63;5057083;28;45524;-70
2021/12/02 01:10:51;;;;;;;;;5.00;4.00;;;;;9.08;66.44;99917.34;5038583;28;45344;-70
2021/12/02 01:13:17;;;;;;;;;4.67;3.67;;;;;8.77;66.36;99864.75;5024877;28;45527;-72
2021/12/02 01:15:43;;;;;;;;;4.33;4.33;;;;;9.39;66.21;99958.31;5040095;28;47443;-72
2021/12/02 01:18:08;;;;;;;;;3.00;3.00;;;;;9.39;66.37;99960.97;5054167;28;45515;-71
2021/12/02 01:20:35;;;;;;;;;4.67;4.67;;;;;9.24;66.21;99929.88;5038572;28;45338;-69
2021/12/02 01:23:01;;;;;;;;;3.00;3.00;;;;;9.35;66.65;99933.09;5053595;28;45535;-69
2021/12/02 01:25:32;;;;;;;;;6.00;6.00;;;;;9.18;66.29;99920.72;5039745;28;47522;-69
2021/12/02 01:27:59;;;;;;;;;7.00;4.00;;;;;9.17;66.40;99929.66;5053318;28;45665;-70
2021/12/02 01:30:26;;;;;;;;;4.67;4.00;;;;;9.22;66.60;99938.00;5038181;28;45515;-70
2021/12/02 01:32:53;;;;;;;;;6.00;6.00;;;;;9.08;66.66;99934.09;5040993;28;45226;-71
2021/12/02 01:35:23;;;;;;;;;4.33;4.00;;;;;9.30;66.88;99967.22;5057944;28;45667;-70
2021/12/02 01:37:48;;;;;;;;;6.00;5.00;;;;;9.29;66.69;99968.22;5057007;28;45453;-70
2021/12/02 01:40:13;;;;;;;;;5.67;4.33;;;;;9.07;66.76;99936.88;5057939;28;45349;-71
2021/12/02 01:42:40;;;;;;;;;7.33;6.33;;;;;9.15;66.90;99940.41;5041471;28;45505;-72
2021/12/02 01:45:06;;;;;;;;;5.67;5.67;;;;;9.33;66.80;99964.25;5037528;28;45806;-70
2021/12/02 01:47:32;;;;;;;;;5.00;5.00;;;;;9.26;66.97;99954.44;5018886;28;46332;-69
2021/12/02 01:50:01;;;;;;;;;7.67;6.33;;;;;9.43;66.64;99993.34;5019664;28;45549;-70
2021/12/02 01:52:32;;;;;;;;;5.67;5.67;;;;;9.35;66.67;99994.13;5020161;28;45495;-71
2021/12/02 01:55:16;;;;;;;;;5.33;5.33;;;;;9.32;66.99;100009.50;5055207;28;45736;-70
2021/12/02 01:57:49;;;;;;;;;7.00;7.00;;;;;9.28;66.82;99994.91;5039484;28;45491;-70
2021/12/02 02:00:19;;;;;;;;;6.33;6.33;;;;;9.30;66.80;99999.06;5040644;28;45481;-69
2021/12/02 02:02:47;;;;;;;;;9.00;8.00;;;;;9.19;66.43;99998.44;5020293;28;45493;-70
2021/12/02 02:05:14;;;;;;;;;8.00;7.67;;;;;9.15;66.92;100005.88;5049010;28;46979;-70
2021/12/02 02:07:58;;;;;;;;;7.00;6.00;;;;;9.20;66.86;100019.50;5052206;28;45684;-70
2021/12/02 02:10:26;;;;;;;;;5.67;5.67;;;;;9.02;67.01;99989.56;5056506;28;45600;-70
2021/12/02 02:12:54;;;;;;;;;4.00;4.00;;;;;9.20;66.73;100011.56;5058019;28;45236;-70
2021/12/02 02:15:19;;;;;;;;;7.00;5.00;;;;;9.35;66.66;100017.16;5022647;28;48940;-70
2021/12/02 02:17:56;;;;;;;;;6.00;6.00;;;;;9.34;66.52;100015.50;5037302;28;45492;-70
2021/12/02 02:20:48;;;;;;;;;5.00;4.00;;;;;8.51;66.44;99887.72;5050724;28;45564;-70
2021/12/02 02:23:14;;;;;;;;;6.33;6.33;;;;;9.26;66.62;100028.69;5057559;28;45250;-70
2021/12/02 02:25:45;;;;;;;;;6.00;5.00;;;;;8.65;66.43;99936.69;5038040;28;48856;-71
2021/12/02 02:28:10;;;;;;;;;6.33;6.33;;;;;9.25;66.33;100048.25;5038969;28;45407;-70
2021/12/02 02:30:37;;;;;;;;;4.67;4.00;;;;;9.15;66.72;100035.88;5051905;28;45221;-71
2021/12/02 02:33:02;;;;;;;;;9.00;6.00;;;;;9.15;66.65;100040.38;5037300;28;45353;-71
2021/12/02 02:35:27;;;;;;;;;5.67;5.00;;;;;9.22;66.37;100052.06;5039300;28;45951;-70
2021/12/02 02:37:53;;;;;;;;;5.00;5.00;;;;;9.22;66.46;100046.75;5056245;28;45268;-69
2021/12/02 02:40:18;;;;;;;;;6.00;6.00;;;;;9.13;66.51;100042.34;5038519;28;45478;-69
2021/12/02 02:42:49;;;;;;;;;5.00;5.00;;;;;8.71;66.50;99979.31;5057937;28;45174;-71
2021/12/02 02:45:16;;;;;;;;;7.67;7.00;;;;;9.25;66.45;100065.00;5051525;28;46575;-70
2021/12/02 02:47:42;;;;;;;;;4.67;4.67;;;;;9.07;66.36;100040.31;5036644;28;45448;-69
2021/12/02 02:50:14;;;;;;;;;3.33;3.33;;;;;8.87;66.19;100022.88;5037219;28;45495;-70
2021/12/02 02:52:40;;;;;;;;;4.00;3.00;;;;;9.08;66.18;100065.81;5035546;28;45454;-70
2021/12/02 02:55:07;;;;;;;;;5.33;5.00;;;;;8.74;66.07;100032.00;5036660;28;46362;-69
2021/12/02 02:57:44;;;;;;;;;5.00;5.00;;;;;8.96;66.44;100059.06;5018899;28;45637;-70
2021/12/02 03:00:17;;;;;;;;;3.33;3.00;;;;;8.80;66.27;100033.22;5029206;28;45608;-70
2021/12/02 03:02:56;;;;;;;;;4.67;3.33;;;;;7.63;66.29;99842.41;5046691;28;45497;-71
2021/12/02 03:05:26;;;;;;;;;5.00;5.00;;;;;9.02;65.85;100069.09;5018518;28;46923;-70
2021/12/02 03:07:56;;;;;;;;;4.00;3.33;;;;;8.92;65.85;100047.09;5047316;28;45459;-71
2021/12/02 03:12:56;;;;;;;;;3.00;2.67;;;;;8.77;65.49;100055.56;5044334;28;45205;-70
2021/12/02 03:17:48;;;;;;;;;5.67;3.00;;;;;8.97;64.85;100081.94;5036476;28;45567;-70
2021/12/02 03:20:14;;;;;;;;;2.67;2.67;;;;;8.99;65.01;100079.97;5044750;28;46751;-69
2021/12/02 03:22:40;;;;;;;;;3.33;2.33;;;;;8.99;64.82;100093.22;5057175;28;45333;-70
2021/12/02 03:25:07;;;;;;;;;3.00;2.00;;;;;8.97;65.12;100092.53;5055064;28;45670;-70
2021/12/02 03:27:33;;;;;;;;;6.00;3.00;;;;;8.99;64.78;100095.88;5056413;28;45297;-70
2021/12/02 03:29:59;;;;;;;;;3.00;3.00;;;;;8.95;65.14;100089.22;5055631;28;45243;-71
2021/12/02 03:32:24;;;;;;;;;3.00;2.00;;;;;8.84;64.24;100099.06;5059437;28;45360;-70
2021/12/02 03:34:50;;;;;;;;;3.00;3.00;;;;;8.97;64.38;100105.81;5070701;28;46128;-71
2021/12/02 03:37:16;;;;;;;;;1.67;1.00;;;;;9.02;64.46;100106.22;5058829;28;45372;-72
2021/12/02 03:39:42;;;;;;;;;1.00;1.00;;;;;8.86;63.22;100103.38;5041696;28;45482;-71
2021/12/02 03:42:08;;;;;;;;;2.00;2.00;;;;;8.73;63.46;100091.28;5059211;28;45390;-71
2021/12/02 03:44:33;;;;;;;;;3.00;2.00;;;;;8.78;63.85;100099.63;5041512;28;47742;-71
2021/12/02 03:46:59;;;;;;;;;1.67;1.67;;;;;8.78;63.68;100104.09;5057070;28;45646;-71
2021/12/02 03:49:24;;;;;;;;;3.00;1.00;;;;;8.67;62.96;100091.91;5048817;28;45702;-70
2021/12/02 03:51:50;;;;;;;;;2.67;2.00;;;;;8.68;63.09;100117.41;5039892;28;45771;-70
2021/12/02 03:54:15;;;;;;;;;1.67;1.67;;;;;8.62;63.48;100107.41;5021252;28;47423;-71
2021/12/02 03:56:41;;;;;;;;;3.00;2.00;;;;;8.67;63.72;100115.75;5039382;28;45206;-68
2021/12/02 03:59:06;;;;;;;;;0.00;0.00;;;;;8.68;63.25;100119.22;5039766;28;45223;-70
2021/12/02 04:01:32;;;;;;;;;3.00;1.00;;;;;8.52;63.28;100119.84;5038326;28;45247;-70
2021/12/02 04:03:57;;;;;;;;;1.33;1.00;;;;;8.16;62.88;100066.72;5039126;28;45450;-71
2021/12/02 04:06:23;;;;;;;;;1.00;1.00;;;;;8.62;62.74;100130.44;5039250;28;45168;-70
2021/12/02 04:16:20;;;;;;;;;2.00;0.67;;;;;8.29;61.99;100129.13;5059190;28;45462;-70
2021/12/02 04:18:45;;;;;;;;;2.67;1.67;;;;;8.26;60.89;100117.00;5056123;28;45452;-70
2021/12/02 04:21:11;;;;;;;;;1.00;1.00;;;;;8.17;60.76;100123.97;5039348;28;45322;-70
2021/12/02 04:23:37;;;;;;;;;0.00;0.00;;;;;8.16;60.43;100124.97;5038593;28;46727;-70
2021/12/02 04:26:03;;;;;;;;;1.00;1.00;;;;;8.27;60.67;100139.03;5039017;28;45312;-71
2021/12/02 04:28:29;;;;;;;;;1.00;1.00;;;;;8.29;60.50;100137.06;5039089;28;45512;-70
2021/12/02 04:30:55;;;;;;;;;1.33;1.00;;;;;8.23;59.47;100147.25;5039268;28;45246;-71
2021/12/02 04:33:20;;;;;;;;;0.00;0.00;;;;;8.04;59.35;100136.72;5038753;28;46027;-71
2021/12/02 04:35:46;;;;;;;;;1.00;1.00;;;;;8.12;59.73;100150.06;5037485;28;45483;-69
2021/12/02 04:38:11;;;;;;;;;1.67;1.00;;;;;8.08;58.87;100169.03;5039113;28;45304;-69
2021/12/02 04:40:40;;;;;;;;;2.00;0.67;;;;;7.40;58.83;100081.75;5039121;28;45343;-69
2021/12/02 04:43:06;;;;;;;;;1.00;1.00;;;;;7.78;58.83;100180.59;5037987;28;46869;-70
2021/12/02 04:45:31;;;;;;;;;1.00;1.00;;;;;7.63;59.37;100173.09;5020649;28;45388;-71
2021/12/02 04:47:57;;;;;;;;;1.00;1.00;;;;;7.51;59.60;100176.84;5039192;28;45461;-70
2021/12/02 04:50:22;;;;;;;;;2.00;1.00;;;;;7.42;60.89;100182.13;5038976;28;45590;-70
2021/12/02 04:52:49;;;;;;;;;1.00;1.00;;;;;7.44;61.11;100191.59;5020597;28;48423;-70
2021/12/02 04:55:15;;;;;;;;;1.00;1.00;;;;;7.42;60.87;100190.91;5054244;28;45278;-70
2021/12/02 04:57:40;;;;;;;;;3.33;1.00;;;;;7.26;62.03;100177.38;5058404;28;45546;-70
2021/12/02 05:00:06;;;;;;;;;4.00;1.00;;;;;7.09;62.14;100138.38;5026258;28;45512;-70
2021/12/02 05:02:32;;;;;;;;;1.33;1.33;;;;;7.37;61.50;100184.34;5038477;28;47670;-70
2021/12/02 05:04:57;;;;;;;;;2.67;2.67;;;;;7.45;61.64;100206.50;5051136;28;45396;-70
2021/12/02 05:07:22;;;;;;;;;2.00;1.00;;;;;7.19;61.76;100189.44;5057259;28;45455;-69
2021/12/02 05:09:48;;;;;;;;;3.00;1.00;;;;;7.28;61.65;100188.66;5058568;28;45365;-71
2021/12/02 05:12:13;;;;;;;;;2.67;1.67;;;;;7.38;61.26;100196.59;5040190;28;47932;-69
2021/12/02 05:14:38;;;;;;;;;1.00;1.00;;;;;7.26;61.57;100188.78;5046196;28;45334;-71
2021/12/02 05:17:04;;;;;;;;;2.00;2.00;;;;;7.39;61.05;100224.69;5038387;28;45301;-70
2021/12/02 05:19:29;;;;;;;;;5.00;3.67;;;;;7.41;62.09;100223.63;5047275;28;45336;-70
2021/12/02 05:21:55;;;;;;;;;1.67;1.67;;;;;7.43;61.27;100219.03;5040166;28;47764;-70
2021/12/02 05:24:20;;;;;;;;;3.00;2.00;;;;;7.27;61.47;100193.09;5049691;28;45296;-70
2021/12/02 05:26:45;;;;;;;;;4.33;3.00;;;;;7.26;62.10;100211.75;5020405;28;45309;-70
2021/12/02 05:29:12;;;;;;;;;5.67;4.67;;;;;7.21;61.73;100219.25;5020530;28;45318;-71
2021/12/02 05:31:37;;;;;;;;;4.00;2.00;;;;;7.22;62.64;100210.34;5019713;28;48365;-72
2021/12/02 05:34:03;;;;;;;;;1.67;1.00;;;;;7.26;61.99;100209.09;5036264;28;45651;-71
2021/12/02 05:36:28;;;;;;;;;1.00;1.00;;;;;7.20;61.82;100193.75;5020012;28;45196;-69
2021/12/02 05:38:53;;;;;;;;;2.33;2.00;;;;;7.40;61.23;100231.66;5037013;28;45565;-72
2021/12/02 05:41:19;;;;;;;;;1.33;1.33;;;;;7.35;61.52;100228.59;5057076;28;48067;-70
2021/12/02 05:43:44;;;;;;;;;4.00;2.00;;;;;7.33;61.88;100239.31;5057980;28;45233;-70
2021/12/02 05:46:10;;;;;;;;;3.00;3.00;;;;;6.71;62.16;100161.09;5039332;28;45266;-69
2021/12/02 05:48:36;;;;;;;;;3.00;1.67;;;;;7.24;62.50;100232.19;5020091;28;45564;-69
2021/12/02 05:51:01;;;;;;;;;2.00;2.00;;;;;7.20;62.67;100221.03;5035761;28;47501;-72
2021/12/02 05:53:28;;;;;;;;;2.00;2.00;;;;;6.63;62.19;100126.59;5037662;28;45400;-70
2021/12/02 05:55:53;;;;;;;;;2.33;2.00;;;;;7.23;62.33;100225.25;5052968;28;45520;-70
2021/12/02 05:58:18;;;;;;;;;3.67;2.00;;;;;7.06;62.98;100207.38;5057578;28;45505;-70
2021/12/02 06:00:44;;;;;;;;;3.00;3.00;;;;;7.15;62.66;100214.47;5043097;28;45628;-70
2021/12/02 06:03:09;;;;;;;;;5.33;4.67;;;;;7.15;62.94;100227.72;5019496;28;45996;-70
2021/12/02 06:05:35;;;;;;;;;6.00;3.33;;;;;7.02;62.38;100206.81;5019144;28;45431;-70
2021/12/02 06:08:03;;;;;;;;;4.00;3.00;;;;;7.16;62.35;100239.94;5037974;28;45156;-71
2021/12/02 06:10:30;;;;;;;;;5.00;3.33;;;;;7.03;62.53;100245.50;5037888;28;46356;-70
2021/12/02 06:12:56;;;;;;;;;1.33;1.33;;;;;7.05;62.66;100242.72;5037252;28;45431;-71
2021/12/02 06:15:27;;;;;;;;;6.00;4.00;;;;;6.89;62.91;100244.03;5091695;27;1342359;-71
2021/12/02 06:17:52;;;;;;;;;3.33;3.00;;;;;6.97;63.03;100240.72;5115483;27;45386;-70
2021/12/02 06:20:18;;;;;;;;;3.00;2.00;;;;;6.72;62.29;100190.00;5125994;27;45623;-71
2021/12/02 06:22:44;;;;;;;;;6.00;4.00;;;;;7.01;62.44;100242.97;5111681;27;45458;-70
2021/12/02 06:27:42;;;;;;;;;5.00;3.00;;;;;7.13;62.13;100266.66;5134516;27;45422;-72
2021/12/02 06:30:08;;;;;;;;;9.67;2.67;;;;;6.98;62.71;100237.09;5124215;27;45314;-71
2021/12/02 06:32:33;;;;;;;;;3.33;3.33;;;;;7.06;62.47;100250.50;5114149;27;45301;-69
2021/12/02 06:34:59;;;;;;;;;4.00;2.33;;;;;7.17;62.11;100252.19;5122830;27;46606;-71
2021/12/02 06:37:25;;;;;;;;;3.00;3.00;;;;;7.19;62.26;100245.81;5116290;27;45279;-71
2021/12/02 06:39:51;;;;;;;;;4.67;2.00;;;;;6.96;61.54;100208.16;5130148;27;45628;-72
2021/12/02 06:42:17;;;;;;;;;4.00;4.00;;;;;7.18;61.47;100240.66;5126078;27;45557;-71
2021/12/02 06:44:43;;;;;;;;;3.00;3.00;;;;;7.20;62.01;100258.03;5109849;27;48487;-74
2021/12/02 06:47:08;;;;;;;;;8.33;6.00;;;;;7.09;61.63;100250.22;5119857;27;45556;-71
2021/12/02 06:49:35;;;;;;;;;4.00;2.33;;;;;7.12;61.70;100259.69;5120972;27;45357;-74
2021/12/02 06:52:01;;;;;;;;;6.00;4.67;;;;;6.94;62.10;100247.09;5118047;27;45610;-74
2021/12/02 06:54:27;;;;;;;;;5.00;3.00;;;;;7.04;61.22;100259.53;5125216;27;46582;-70
2021/12/02 06:56:53;;;;;;;;;4.00;4.00;;;;;6.65;61.87;100227.66;5109474;27;45520;-71
2021/12/02 06:59:19;;;;;;;;;3.00;2.67;;;;;6.51;61.84;100212.97;5129945;27;45504;-72
2021/12/02 07:01:45;;;;;;;;;2.67;1.00;;;;;6.82;61.72;100290.47;5095269;27;45582;-73
2021/12/02 07:04:12;;;;;;;;;3.00;3.00;;;;;6.47;61.76;100243.25;5117045;27;45807;-71
2021/12/02 07:06:39;;;;;;;;;6.00;3.33;;;;;6.86;61.82;100307.72;5134405;27;45527;-71
2021/12/02 07:09:06;;;;;;;;;4.00;3.67;;;;;5.89;62.21;100147.00;5113718;27;45479;-72
2021/12/02 07:11:32;;;;;;;;;2.00;2.00;;;;;6.98;62.12;100333.09;5113657;27;45291;-70
2021/12/02 07:14:02;;;;;;;;;4.33;3.33;;;;;6.83;61.32;100307.97;5115367;27;46482;-73
2021/12/02 07:16:27;;;;;;;;;3.00;3.00;;;;;6.95;61.03;100343.09;5115689;27;45591;-71
2021/12/02 07:18:57;;;;;;;;;4.00;2.00;;;;;6.90;61.58;100319.69;5134656;27;45257;-77
2021/12/02 07:21:24;;;;;;;;;3.67;3.00;;;;;6.50;60.71;100252.72;5104651;27;45498;-72
2021/12/02 07:23:51;;;;;;;;;5.00;4.00;;;;;7.10;60.33;100333.00;5096084;27;48822;-72
2021/12/02 07:26:16;;;;;;;;;8.00;3.00;;;;;6.89;60.18;100317.19;5104629;27;45564;-72
2021/12/02 07:28:44;;;;;;;;;7.00;4.00;;;;;6.95;60.32;100343.09;5111594;27;45407;-71
2021/12/02 07:31:11;;;;;;;;;5.67;4.33;;;;;6.72;60.04;100311.53;5081922;27;45621;-71
2021/12/02 07:33:38;;;;;;;;;3.00;3.00;;;;;6.81;59.71;100338.13;5094582;27;48133;-71
2021/12/02 07:36:04;;;;;;;;;9.00;9.00;;;;;6.85;60.06;100343.03;5086469;27;45548;-71
2021/12/02 07:38:30;;;;;;;;;6.33;3.33;;;;;6.93;60.46;100353.78;5087814;27;45399;-71
2021/12/02 07:41:04;;;;;;;;;5.00;4.00;;;;;6.29;59.49;100250.09;5105613;27;45256;-71
2021/12/02 07:43:32;;;;;;;;;4.33;3.33;;;;;6.78;60.34;100347.16;5109164;27;45845;-71
2021/12/02 07:45:59;;;;;;;;;5.00;3.00;;;;;6.84;60.29;100341.38;5095755;27;45674;-71
2021/12/02 07:48:26;;;;;;;;;3.67;3.33;;;;;6.85;60.33;100348.31;5099556;27;45511;-71
2021/12/02 07:50:54;;;;;;;;;9.67;4.67;;;;;6.77;59.99;100329.63;5081654;27;45315;-74
2021/12/02 07:53:20;;;;;;;;;5.33;4.00;;;;;5.53;59.70;100122.72;5092633;27;47590;-70
2021/12/02 07:55:48;;;;;;;;;4.67;4.00;;;;;6.70;60.92;100331.94;5096125;27;45557;-72
2021/12/02 07:58:16;;;;;;;;;4.33;3.67;;;;;6.77;60.27;100337.53;5079501;27;45389;-72
2021/12/02 08:00:41;;;;;;;;;4.33;4.33;;;;;6.98;60.79;100362.16;5099732;27;45304;-72
2021/12/02 08:03:10;;;;;;;;;2.67;2.00;;;;;7.16;60.22;100361.56;5098459;27;46826;-73
2021/12/02 08:05:36;;;;;;;;;3.67;3.67;;;;;7.17;59.36;100368.50;5080884;27;45510;-72
2021/12/02 08:08:01;;;;;;;;;4.00;3.00;;;;;6.94;60.04;100317.63;5098443;27;45399;-72
2021/12/02 08:10:28;;;;;;;;;7.00;4.67;;;;;7.32;60.14;100367.22;5080939;27;45242;-71
2021/12/02 08:12:54;;;;;;;;;3.00;2.67;;;;;6.77;58.81;100255.66;5080108;27;47344;-72
2021/12/02 08:15:24;;;;;;;;;7.67;7.67;;;;;7.37;59.22;100364.16;5098310;27;45544;-72
2021/12/02 08:17:51;;;;;;;;;4.33;3.00;;;;;7.47;58.90;100389.69;5099341;27;45341;-71
2021/12/02 08:20:18;;;;;;;;;6.00;4.33;;;;;7.51;58.32;100391.09;5113598;27;45392;-71
2021/12/02 08:22:43;;;;;;;;;13.67;4.33;;;;;7.54;58.39;100379.41;5119010;27;45665;-71
2021/12/02 08:25:09;;;;;;;;;5.67;4.67;;;;;7.59;58.76;100377.19;5096980;27;45552;-71
2021/12/02 08:27:35;;;;;;;;;4.67;3.33;;;;;7.73;58.22;100387.41;5098722;27;45419;-71
2021/12/02 08:30:03;;;;;;;;;4.67;4.00;;;;;7.70;57.53;100390.34;5106985;27;45500;-71
2021/12/02 08:32:28;;;;;;;;;3.67;2.67;;;;;7.72;57.59;100384.91;5089448;27;46106;-72
2021/12/02 08:34:56;;;;;;;;;7.33;5.33;;;;;7.84;57.29;100402.38;5096971;27;45453;-71
2021/12/02 08:37:22;;;;;;;;;7.00;4.00;;;;;7.72;57.54;100398.13;5110160;27;45441;-73
2021/12/02 08:39:48;;;;;;;;;5.33;2.33;;;;;7.68;57.63;100405.50;5107976;27;45506;-70
2021/12/02 08:42:15;;;;;;;;;5.00;5.00;;;;;7.60;58.05;100394.72;5100225;27;48000;-72
2021/12/02 08:44:41;;;;;;;;;3.00;3.00;;;;;7.68;58.16;100404.69;5100411;27;45358;-72
2021/12/02 08:47:09;;;;;;;;;5.33;4.00;;;;;7.64;58.32;100409.41;5105811;27;45576;-72
2021/12/02 08:49:35;;;;;;;;;5.33;4.00;;;;;7.80;58.09;100419.47;5094291;27;46089;-71
2021/12/02 08:52:00;;;;;;;;;7.33;5.00;;;;;7.69;58.00;100420.41;5118757;27;45916;-72
2021/12/02 08:54:26;;;;;;;;;4.00;4.00;;;;;6.56;57.95;100241.63;5118437;27;45319;-72
2021/12/02 08:56:55;;;;;;;;;3.67;3.67;;;;;7.78;57.91;100409.00;5111584;27;45555;-73
2021/12/02 08:59:20;;;;;;;;;3.33;3.33;;;;;7.87;57.38;100407.38;5098235;27;45595;-72
2021/12/02 09:01:47;;;;;;;;;5.00;3.67;;;;;8.06;57.26;100412.72;5099460;27;46143;-71
2021/12/02 09:04:12;;;;;;;;;11.00;7.00;;;;;8.30;57.17;100427.41;5118728;27;45523;-72
2021/12/02 09:06:38;;;;;;;;;6.00;3.00;;;;;8.37;56.49;100433.84;5095843;27;45481;-72
2021/12/02 09:09:03;;;;;;;;;6.00;4.00;;;;;8.32;55.93;100438.69;5101585;27;45472;-71
2021/12/02 09:11:31;;;;;;;;;4.67;4.67;;;;;8.24;56.02;100400.50;5097881;27;45701;-71
2021/12/02 09:13:58;;;;;;;;;6.00;4.33;;;;;8.44;56.21;100393.44;5079114;27;45470;-70
2021/12/02 09:16:25;;;;;;;;;27.00;24.00;;;;;8.79;55.14;100440.56;5098467;27;45455;-70
2021/12/02 09:18:54;;;;;;;;;4.67;4.00;;;;;8.89;54.75;100450.34;5100374;27;45423;-71
2021/12/02 09:21:19;;;;;;;;;5.67;3.33;;;;;8.95;54.50;100447.13;5118277;27;45367;-73
2021/12/02 09:23:45;;;;;;;;;4.00;2.00;;;;;8.86;54.41;100440.88;5116456;27;45278;-72
2021/12/02 09:26:10;;;;;;;;;8.67;5.00;;;;;8.59;54.07;100406.25;5089250;27;45402;-71
2021/12/02 09:28:36;;;;;;;;;8.00;6.00;;;;;8.88;54.73;100448.69;5118564;27;45307;-72
2021/12/02 09:31:02;;;;;;;;;9.00;5.00;;;;;9.07;54.70;100453.97;5118276;27;46027;-71
2021/12/02 09:33:30;;;;;;;;;8.33;4.67;;;;;9.15;54.42;100446.97;5107302;27;45498;-71
2021/12/02 09:35:56;;;;;;;;;7.33;6.00;;;;;9.19;54.31;100439.56;5079420;27;45378;-72
2021/12/02 09:38:24;;;;;;;;;3.00;3.00;;;;;9.20;53.58;100448.34;5086424;27;45465;-73
2021/12/02 09:40:50;;;;;;;;;6.67;4.67;;;;;9.14;53.66;100437.34;5088728;27;47294;-72
2021/12/02 09:43:16;;;;;;;;;4.00;3.00;;;;;8.99;53.24;100417.53;5103235;27;45265;-71
2021/12/02 09:45:42;;;;;;;;;4.00;3.00;;;;;9.13;53.12;100474.59;5110134;27;45186;-72
2021/12/02 09:48:09;;;;;;;;;4.67;3.67;;;;;9.05;53.57;100462.06;5084118;27;45574;-72
2021/12/02 09:50:49;;;;;;;;;8.67;6.00;;;;;9.09;53.17;100478.53;5114556;27;45635;-72
2021/12/02 09:53:18;;;;;;;;;7.00;4.00;;;;;8.68;52.86;100443.38;5084818;27;46417;-72
2021/12/02 09:55:54;;;;;;;;;5.67;3.33;;;;;8.81;53.47;100480.22;5098766;27;45236;-73
2021/12/02 09:58:25;;;;;;;;;5.00;4.00;;;;;8.76;54.02;100477.13;5098373;27;46166;-71
2021/12/02 10:03:32;;;;;;;;;6.00;5.00;;;;;8.99;53.78;100498.88;5118099;27;45297;-71
2021/12/02 10:06:06;;;;;;;;;5.33;4.00;;;;;8.70;53.54;100438.78;5112857;27;45409;-71
2021/12/02 10:08:53;;;;;;;;;6.00;4.00;;;;;8.96;53.20;100491.22;5098695;27;45777;-70
2021/12/02 10:11:31;;;;;;;;;3.67;3.67;;;;;8.76;53.37;100493.84;5117758;27;45657;-72
2021/12/02 10:14:27;;;;;;;;;6.67;4.00;;;;;8.90;53.61;100494.44;5109440;27;45513;-71
2021/12/02 10:17:11;;;;;;;;;7.00;4.00;;;;;8.97;52.02;100487.59;5078966;27;45537;-71
2021/12/02 10:20:12;;;;;;;;;4.67;3.00;;;;;8.86;52.52;100490.41;5112294;27;45426;-71
2021/12/02 10:22:39;;;;;;;;;4.33;3.00;;;;;8.95;52.79;100486.91;5114947;27;46573;-73
2021/12/02 10:25:05;;;;;;;;;15.00;11.00;;;;;9.06;52.40;100489.41;5098424;27;45520;-72
2021/12/02 10:27:30;;;;;;;;;4.67;4.67;;;;;8.97;52.21;100493.72;5080183;27;45528;-71
2021/12/02 10:29:55;;;;;;;;;11.67;7.33;;;;;8.76;52.07;100480.59;5095313;27;45428;-72
2021/12/02 10:32:28;;;;;;;;;3.00;3.00;;;;;8.93;51.99;100491.50;5094842;27;48894;-71
2021/12/02 10:35:03;;;;;;;;;5.33;3.33;;;;;8.81;51.38;100482.88;5116510;27;45299;-72
2021/12/02 10:37:37;;;;;;;;;2.00;2.00;;;;;8.82;50.93;100500.44;5105829;27;45524;-72
2021/12/02 10:40:10;;;;;;;;;1.33;1.33;;;;;8.63;50.65;100492.47;5090018;27;45513;-76
2021/12/02 10:42:41;;;;;;;;;3.67;2.67;;;;;8.47;51.14;100493.84;5097202;27;45275;-72
2021/12/02 10:45:18;;;;;;;;;3.00;1.67;;;;;8.58;51.87;100498.16;5078810;27;45698;-72
2021/12/02 10:47:49;;;;;;;;;3.00;2.67;;;;;8.58;50.97;100479.63;5078595;27;45363;-71
2021/12/02 10:50:16;;;;;;;;;6.00;5.00;;;;;8.37;51.65;100465.63;5078547;27;45598;-71
2021/12/02 10:52:41;;;;;;;;;5.00;5.00;;;;;8.45;51.45;100476.41;5078666;27;47259;-71
2021/12/02 10:55:09;;;;;;;;;2.33;2.00;;;;;8.49;50.87;100491.88;5096896;27;45351;-72
2021/12/02 10:57:38;;;;;;;;;4.33;2.67;;;;;8.00;50.50;100417.72;5096687;27;45296;-71
2021/12/02 11:00:11;;;;;;;;;4.00;3.67;;;;;8.43;50.48;100473.06;5117887;27;45510;-72
2021/12/02 11:02:46;;;;;;;;;5.00;3.67;;;;;8.64;51.33;100475.59;5102203;27;47942;-72
2021/12/02 11:07:55;;;;;;;;;1.00;1.00;;;;;8.53;50.15;100456.19;5121185;27;45229;-72
2021/12/02 11:10:21;;;;;;;;;7.33;5.00;;;;;8.61;50.75;100474.06;5102861;27;45585;-71
2021/12/02 11:12:50;;;;;;;;;1.33;1.33;;;;;8.54;50.72;100471.09;5102060;27;48243;-72
2021/12/02 11:15:25;;;;;;;;;7.33;3.00;;;;;8.65;50.96;100461.38;5120450;27;45592;-73
2021/12/02 11:17:59;;;;;;;;;4.67;4.67;;;;;8.83;50.37;100455.25;5120688;27;45515;-72
2021/12/02 11:20:35;;;;;;;;;6.33;4.00;;;;;8.71;50.06;100411.28;5106273;27;45330;-73
2021/12/02 11:23:09;;;;;;;;;4.00;4.00;;;;;7.78;48.50;100252.03;5102541;27;45398;-72
2021/12/02 11:25:58;;;;;;;;;5.33;4.33;;;;;8.76;48.50;100409.03;5086846;27;45530;-74
2021/12/02 11:28:26;;;;;;;;;6.00;3.33;;;;;8.82;48.67;100432.38;5086342;27;45486;-72
2021/12/02 11:30:52;;;;;;;;;4.00;2.33;;;;;9.03;48.95;100455.22;5099988;27;45900;-72
2021/12/02 11:33:19;;;;;;;;;1.00;1.00;;;;;8.98;48.61;100468.06;5100790;27;45549;-73
2021/12/02 11:35:47;;;;;;;;;4.33;3.00;;;;;8.62;49.07;100436.00;5099813;27;45439;-72
2021/12/02 11:38:19;;;;;;;;;3.00;1.67;;;;;8.78;49.16;100464.56;5099730;27;45217;-72
2021/12/02 11:40:51;;;;;;;;;4.00;4.00;;;;;8.54;50.04;100419.94;5101388;27;45401;-72
2021/12/02 11:43:19;;;;;;;;;0.33;0.33;;;;;8.66;48.10;100429.44;5120309;27;46587;-75
2021/12/02 11:45:47;;;;;;;;;2.33;2.00;;;;;8.57;47.57;100450.59;5109308;27;46378;-73
2021/12/02 11:48:22;;;;;;;;;2.00;2.00;;;;;8.49;47.21;100461.91;5095049;27;45469;-73
2021/12/02 11:50:51;;;;;;;;;31.00;27.33;;;;;8.49;48.11;100461.91;5096065;27;45699;-73
2021/12/02 11:53:23;;;;;;;;;1.00;1.00;;;;;8.32;48.00;100442.19;5100493;27;45534;-74
2021/12/02 11:55:52;;;;;;;;;4.00;2.00;;;;;8.32;47.45;100452.78;5101840;27;45945;-73
2021/12/02 11:58:18;;;;;;;;;2.00;1.00;;;;;8.19;47.50;100452.19;5110186;27;45491;-73
2021/12/02 12:00:45;;;;;;;;;2.33;2.33;;;;;8.14;48.30;100447.31;5095876;27;45535;-75
2021/12/02 12:03:13;;;;;;;;;1.00;1.00;;;;;8.18;48.09;100456.63;5119647;27;45720;-71